sensor_id;sensor_type;location;lat;lon;timestamp;pressure;altitude;pressure_sealevel;temperature
33877;BMP180;20166;51.738;7.158;2023-08-07T00:00:46;100461.00;;;14.40
33877;BMP180;20166;51.738;7.158;2023-08-07T00:03:33;100465.00;;;14.40
33877;BMP180;20166;51.738;7.158;2023-08-07T00:06:20;100451.00;;;14.40
33877;BMP180;20166;51.738;7.158;2023-08-07T00:09:06;100457.00;;;14.50
33877;BMP180;20166;51.738;7.158;2023-08-07T00:11:53;100457.00;;;14.40
33877;BMP180;20166;51.738;7.158;2023-08-07T00:14:41;100470.00;;;14.40
33877;BMP180;20166;51.738;7.158;2023-08-07T00:17:28;100459.00;;;14.50
33877;BMP180;20166;51.738;7.158;2023-08-07T00:20:14;100462.00;;;14.50
33877;BMP180;20166;51.738;7.158;2023-08-07T00:23:01;100455.00;;;14.40
33877;BMP180;20166;51.738;7.158;2023-08-07T00:25:47;100462.00;;;14.50
33877;BMP180;20166;51.738;7.158;2023-08-07T00:28:34;100465.00;;;14.50
33877;BMP180;20166;51.738;7.158;2023-08-07T00:31:21;100470.00;;;14.50
33877;BMP180;20166;51.738;7.158;2023-08-07T00:34:08;100471.00;;;14.40
33877;BMP180;20166;51.738;7.158;2023-08-07T00:36:55;100460.00;;;14.40
33877;BMP180;20166;51.738;7.158;2023-08-07T00:39:42;100465.00;;;14.40
33877;BMP180;20166;51.738;7.158;2023-08-07T00:42:28;100472.00;;;14.30
33877;BMP180;20166;51.738;7.158;2023-08-07T00:45:14;100473.00;;;14.30
33877;BMP180;20166;51.738;7.158;2023-08-07T00:48:04;100482.00;;;14.30
33877;BMP180;20166;51.738;7.158;2023-08-07T00:50:51;100482.00;;;14.30
33877;BMP180;20166;51.738;7.158;2023-08-07T00:53:38;100489.00;;;14.30
33877;BMP180;20166;51.738;7.158;2023-08-07T00:56:25;100483.00;;;14.30
33877;BMP180;20166;51.738;7.158;2023-08-07T00:59:12;100486.00;;;14.40
33877;BMP180;20166;51.738;7.158;2023-08-07T01:01:59;100498.00;;;14.40
33877;BMP180;20166;51.738;7.158;2023-08-07T01:04:47;100492.00;;;14.40
33877;BMP180;20166;51.738;7.158;2023-08-07T01:07:34;100491.00;;;14.40
33877;BMP180;20166;51.738;7.158;2023-08-07T01:10:25;100510.00;;;14.30
33877;BMP180;20166;51.738;7.158;2023-08-07T01:13:16;100505.00;;;14.40
33877;BMP180;20166;51.738;7.158;2023-08-07T01:16:10;100505.00;;;14.40
33877;BMP180;20166;51.738;7.158;2023-08-07T01:19:00;100499.00;;;14.30
33877;BMP180;20166;51.738;7.158;2023-08-07T01:21:49;100499.00;;;14.30
33877;BMP180;20166;51.738;7.158;2023-08-07T01:24:38;100499.00;;;14.30
33877;BMP180;20166;51.738;7.158;2023-08-07T01:27:31;100507.00;;;14.40
33877;BMP180;20166;51.738;7.158;2023-08-07T01:30:25;100504.00;;;14.30
33877;BMP180;20166;51.738;7.158;2023-08-07T01:33:16;100497.00;;;14.40
33877;BMP180;20166;51.738;7.158;2023-08-07T01:36:07;100508.00;;;14.30
33877;BMP180;20166;51.738;7.158;2023-08-07T01:38:55;100505.00;;;14.40
33877;BMP180;20166;51.738;7.158;2023-08-07T01:41:43;100502.00;;;14.30
33877;BMP180;20166;51.738;7.158;2023-08-07T01:44:29;100500.00;;;14.30
33877;BMP180;20166;51.738;7.158;2023-08-07T01:47:15;100508.00;;;14.30
33877;BMP180;20166;51.738;7.158;2023-08-07T01:50:02;100516.00;;;14.30
33877;BMP180;20166;51.738;7.158;2023-08-07T01:52:49;100509.00;;;14.20
33877;BMP180;20166;51.738;7.158;2023-08-07T01:55:37;100507.00;;;14.30
33877;BMP180;20166;51.738;7.158;2023-08-07T01:58:24;100513.00;;;14.10
33877;BMP180;20166;51.738;7.158;2023-08-07T02:01:10;100521.00;;;14.10
33877;BMP180;20166;51.738;7.158;2023-08-07T02:03:56;100520.00;;;14.20
33877;BMP180;20166;51.738;7.158;2023-08-07T02:06:43;100509.00;;;14.10
33877;BMP180;20166;51.738;7.158;2023-08-07T02:09:30;100505.00;;;14.10
33877;BMP180;20166;51.738;7.158;2023-08-07T02:12:18;100509.00;;;14.20
33877;BMP180;20166;51.738;7.158;2023-08-07T02:15:05;100513.00;;;14.10
33877;BMP180;20166;51.738;7.158;2023-08-07T02:17:54;100506.00;;;14.20
33877;BMP180;20166;51.738;7.158;2023-08-07T02:20:41;100510.00;;;14.20
33877;BMP180;20166;51.738;7.158;2023-08-07T02:23:27;100512.00;;;14.20
33877;BMP180;20166;51.738;7.158;2023-08-07T02:26:14;100513.00;;;14.10
33877;BMP180;20166;51.738;7.158;2023-08-07T02:29:02;100514.00;;;14.00
33877;BMP180;20166;51.738;7.158;2023-08-07T02:31:49;100513.00;;;14.10
33877;BMP180;20166;51.738;7.158;2023-08-07T02:34:35;100521.00;;;14.20
33877;BMP180;20166;51.738;7.158;2023-08-07T02:37:21;100527.00;;;14.00
33877;BMP180;20166;51.738;7.158;2023-08-07T02:40:08;100522.00;;;14.00
33877;BMP180;20166;51.738;7.158;2023-08-07T02:42:56;100519.00;;;14.20
33877;BMP180;20166;51.738;7.158;2023-08-07T02:45:43;100536.00;;;14.20
33877;BMP180;20166;51.738;7.158;2023-08-07T02:48:30;100526.00;;;14.10
33877;BMP180;20166;51.738;7.158;2023-08-07T02:51:17;100534.00;;;14.10
33877;BMP180;20166;51.738;7.158;2023-08-07T02:54:03;100521.00;;;14.20
33877;BMP180;20166;51.738;7.158;2023-08-07T02:56:50;100518.00;;;14.10
33877;BMP180;20166;51.738;7.158;2023-08-07T02:59:36;100522.00;;;14.10
33877;BMP180;20166;51.738;7.158;2023-08-07T03:02:25;100523.00;;;14.30
33877;BMP180;20166;51.738;7.158;2023-08-07T03:05:11;100516.00;;;14.20
33877;BMP180;20166;51.738;7.158;2023-08-07T03:07:58;100522.00;;;14.10
33877;BMP180;20166;51.738;7.158;2023-08-07T03:10:50;100522.00;;;14.00
33877;BMP180;20166;51.738;7.158;2023-08-07T03:13:37;100539.00;;;14.10
33877;BMP180;20166;51.738;7.158;2023-08-07T03:16:23;100525.00;;;14.00
33877;BMP180;20166;51.738;7.158;2023-08-07T03:19:11;100537.00;;;14.00
33877;BMP180;20166;51.738;7.158;2023-08-07T03:21:58;100531.00;;;14.10
33877;BMP180;20166;51.738;7.158;2023-08-07T03:24:46;100531.00;;;14.00
33877;BMP180;20166;51.738;7.158;2023-08-07T03:27:32;100527.00;;;14.00
33877;BMP180;20166;51.738;7.158;2023-08-07T03:30:19;100533.00;;;14.10
33877;BMP180;20166;51.738;7.158;2023-08-07T03:33:05;100537.00;;;14.00
33877;BMP180;20166;51.738;7.158;2023-08-07T03:35:53;100534.00;;;13.90
33877;BMP180;20166;51.738;7.158;2023-08-07T03:38:39;100530.00;;;14.00
33877;BMP180;20166;51.738;7.158;2023-08-07T03:41:26;100546.00;;;14.00
33877;BMP180;20166;51.738;7.158;2023-08-07T03:44:13;100544.00;;;13.90
33877;BMP180;20166;51.738;7.158;2023-08-07T03:47:00;100540.00;;;13.90
33877;BMP180;20166;51.738;7.158;2023-08-07T03:49:46;100549.00;;;13.90
33877;BMP180;20166;51.738;7.158;2023-08-07T03:52:34;100549.00;;;13.90
33877;BMP180;20166;51.738;7.158;2023-08-07T03:55:20;100546.00;;;14.00
33877;BMP180;20166;51.738;7.158;2023-08-07T03:58:07;100548.00;;;14.00
33877;BMP180;20166;51.738;7.158;2023-08-07T04:00:55;100552.00;;;13.90
33877;BMP180;20166;51.738;7.158;2023-08-07T04:03:42;100545.00;;;13.80
33877;BMP180;20166;51.738;7.158;2023-08-07T04:06:29;100552.00;;;13.90
33877;BMP180;20166;51.738;7.158;2023-08-07T04:09:17;100553.00;;;13.90
33877;BMP180;20166;51.738;7.158;2023-08-07T04:12:04;100542.00;;;13.90
33877;BMP180;20166;51.738;7.158;2023-08-07T04:14:51;100539.00;;;13.90
33877;BMP180;20166;51.738;7.158;2023-08-07T04:17:38;100536.00;;;13.90
33877;BMP180;20166;51.738;7.158;2023-08-07T04:20:24;100547.00;;;13.80
33877;BMP180;20166;51.738;7.158;2023-08-07T04:23:11;100541.00;;;13.90
33877;BMP180;20166;51.738;7.158;2023-08-07T04:25:59;100541.00;;;13.90
33877;BMP180;20166;51.738;7.158;2023-08-07T04:28:46;100537.00;;;13.90
33877;BMP180;20166;51.738;7.158;2023-08-07T04:31:33;100549.00;;;13.80
33877;BMP180;20166;51.738;7.158;2023-08-07T04:34:19;100545.00;;;13.90
33877;BMP180;20166;51.738;7.158;2023-08-07T04:37:06;100544.00;;;14.00
33877;BMP180;20166;51.738;7.158;2023-08-07T04:39:53;100534.00;;;13.90
33877;BMP180;20166;51.738;7.158;2023-08-07T04:42:42;100539.00;;;14.00
33877;BMP180;20166;51.738;7.158;2023-08-07T04:45:28;100544.00;;;14.00
33877;BMP180;20166;51.738;7.158;2023-08-07T04:48:15;100554.00;;;14.00
33877;BMP180;20166;51.738;7.158;2023-08-07T04:51:03;100552.00;;;14.00
33877;BMP180;20166;51.738;7.158;2023-08-07T04:53:49;100550.00;;;14.10
33877;BMP180;20166;51.738;7.158;2023-08-07T04:56:37;100547.00;;;13.90
33877;BMP180;20166;51.738;7.158;2023-08-07T04:59:25;100549.00;;;13.90
33877;BMP180;20166;51.738;7.158;2023-08-07T05:02:12;100551.00;;;14.00
33877;BMP180;20166;51.738;7.158;2023-08-07T05:04:59;100552.00;;;13.90
33877;BMP180;20166;51.738;7.158;2023-08-07T05:07:45;100556.00;;;13.90
33877;BMP180;20166;51.738;7.158;2023-08-07T05:10:32;100553.00;;;14.00
33877;BMP180;20166;51.738;7.158;2023-08-07T05:13:19;100553.00;;;14.00
33877;BMP180;20166;51.738;7.158;2023-08-07T05:16:07;100551.00;;;14.00
33877;BMP180;20166;51.738;7.158;2023-08-07T05:18:53;100556.00;;;13.90
33877;BMP180;20166;51.738;7.158;2023-08-07T05:21:39;100546.00;;;13.90
33877;BMP180;20166;51.738;7.158;2023-08-07T05:24:26;100547.00;;;13.90
33877;BMP180;20166;51.738;7.158;2023-08-07T05:27:12;100560.00;;;13.90
33877;BMP180;20166;51.738;7.158;2023-08-07T05:29:59;100567.00;;;13.90
33877;BMP180;20166;51.738;7.158;2023-08-07T05:32:47;100568.00;;;14.00
33877;BMP180;20166;51.738;7.158;2023-08-07T05:35:33;100569.00;;;13.90
33877;BMP180;20166;51.738;7.158;2023-08-07T05:38:20;100575.00;;;13.90
33877;BMP180;20166;51.738;7.158;2023-08-07T05:41:08;100579.00;;;13.90
33877;BMP180;20166;51.738;7.158;2023-08-07T05:43:55;100575.00;;;13.90
33877;BMP180;20166;51.738;7.158;2023-08-07T05:46:42;100575.00;;;13.90
33877;BMP180;20166;51.738;7.158;2023-08-07T05:49:30;100581.00;;;13.80
33877;BMP180;20166;51.738;7.158;2023-08-07T05:52:17;100587.00;;;13.90
33877;BMP180;20166;51.738;7.158;2023-08-07T05:55:05;100582.00;;;14.00
33877;BMP180;20166;51.738;7.158;2023-08-07T05:57:51;100591.00;;;14.00
33877;BMP180;20166;51.738;7.158;2023-08-07T06:00:38;100591.00;;;14.00
33877;BMP180;20166;51.738;7.158;2023-08-07T06:03:25;100582.00;;;14.00
33877;BMP180;20166;51.738;7.158;2023-08-07T06:06:13;100592.00;;;14.10
33877;BMP180;20166;51.738;7.158;2023-08-07T06:09:00;100594.00;;;14.10
33877;BMP180;20166;51.738;7.158;2023-08-07T06:11:47;100595.00;;;14.10
33877;BMP180;20166;51.738;7.158;2023-08-07T06:14:33;100604.00;;;14.10
33877;BMP180;20166;51.738;7.158;2023-08-07T06:17:20;100606.00;;;14.10
33877;BMP180;20166;51.738;7.158;2023-08-07T06:20:08;100612.00;;;14.10
33877;BMP180;20166;51.738;7.158;2023-08-07T06:22:58;100606.00;;;14.30
33877;BMP180;20166;51.738;7.158;2023-08-07T06:25:44;100600.00;;;14.50
33877;BMP180;20166;51.738;7.158;2023-08-07T06:28:32;100599.00;;;14.60
33877;BMP180;20166;51.738;7.158;2023-08-07T06:31:18;100605.00;;;14.60
33877;BMP180;20166;51.738;7.158;2023-08-07T06:34:05;100606.00;;;14.50
33877;BMP180;20166;51.738;7.158;2023-08-07T06:36:51;100622.00;;;14.60
33877;BMP180;20166;51.738;7.158;2023-08-07T06:39:38;100625.00;;;14.50
33877;BMP180;20166;51.738;7.158;2023-08-07T06:42:25;100633.00;;;14.60
33877;BMP180;20166;51.738;7.158;2023-08-07T06:45:11;100624.00;;;14.70
33877;BMP180;20166;51.738;7.158;2023-08-07T06:47:58;100630.00;;;15.00
33877;BMP180;20166;51.738;7.158;2023-08-07T06:50:44;100625.00;;;15.40
33877;BMP180;20166;51.738;7.158;2023-08-07T06:53:30;100636.00;;;15.10
33877;BMP180;20166;51.738;7.158;2023-08-07T06:56:18;100643.00;;;15.00
33877;BMP180;20166;51.738;7.158;2023-08-07T06:59:04;100649.00;;;14.80
33877;BMP180;20166;51.738;7.158;2023-08-07T07:01:51;100655.00;;;14.70
33877;BMP180;20166;51.738;7.158;2023-08-07T07:04:38;100652.00;;;14.60
33877;BMP180;20166;51.738;7.158;2023-08-07T07:07:24;100655.00;;;14.60
33877;BMP180;20166;51.738;7.158;2023-08-07T07:10:10;100663.00;;;14.50
33877;BMP180;20166;51.738;7.158;2023-08-07T07:12:58;100672.00;;;14.60
33877;BMP180;20166;51.738;7.158;2023-08-07T07:15:45;100677.00;;;14.50
33877;BMP180;20166;51.738;7.158;2023-08-07T07:18:31;100674.00;;;14.60
33877;BMP180;20166;51.738;7.158;2023-08-07T07:21:18;100685.00;;;14.50
33877;BMP180;20166;51.738;7.158;2023-08-07T07:24:05;100690.00;;;14.60
33877;BMP180;20166;51.738;7.158;2023-08-07T07:26:51;100679.00;;;14.60
33877;BMP180;20166;51.738;7.158;2023-08-07T07:29:39;100685.00;;;14.60
33877;BMP180;20166;51.738;7.158;2023-08-07T07:32:26;100688.00;;;14.60
33877;BMP180;20166;51.738;7.158;2023-08-07T07:35:12;100699.00;;;14.70
33877;BMP180;20166;51.738;7.158;2023-08-07T07:37:58;100698.00;;;14.70
33877;BMP180;20166;51.738;7.158;2023-08-07T07:40:44;100694.00;;;14.70
33877;BMP180;20166;51.738;7.158;2023-08-07T07:43:30;100710.00;;;14.60
33877;BMP180;20166;51.738;7.158;2023-08-07T07:46:18;100701.00;;;14.70
33877;BMP180;20166;51.738;7.158;2023-08-07T07:49:04;100694.00;;;14.70
33877;BMP180;20166;51.738;7.158;2023-08-07T07:51:50;100721.00;;;14.50
33877;BMP180;20166;51.738;7.158;2023-08-07T07:54:37;100715.00;;;14.60
33877;BMP180;20166;51.738;7.158;2023-08-07T07:57:23;100721.00;;;14.80
33877;BMP180;20166;51.738;7.158;2023-08-07T08:00:11;100715.00;;;14.80
33877;BMP180;20166;51.738;7.158;2023-08-07T08:02:59;100724.00;;;14.80
33877;BMP180;20166;51.738;7.158;2023-08-07T08:05:48;100735.00;;;14.80
33877;BMP180;20166;51.738;7.158;2023-08-07T08:08:34;100745.00;;;14.90
33877;BMP180;20166;51.738;7.158;2023-08-07T08:11:21;100737.00;;;14.70
33877;BMP180;20166;51.738;7.158;2023-08-07T08:14:08;100751.00;;;14.90
33877;BMP180;20166;51.738;7.158;2023-08-07T08:16:54;100746.00;;;14.70
33877;BMP180;20166;51.738;7.158;2023-08-07T08:19:42;100751.00;;;15.10
33877;BMP180;20166;51.738;7.158;2023-08-07T08:22:35;100750.00;;;15.20
33877;BMP180;20166;51.738;7.158;2023-08-07T08:25:21;100764.00;;;15.40
33877;BMP180;20166;51.738;7.158;2023-08-07T08:28:08;100766.00;;;15.30
33877;BMP180;20166;51.738;7.158;2023-08-07T08:30:54;100771.00;;;15.40
33877;BMP180;20166;51.738;7.158;2023-08-07T08:33:41;100760.00;;;15.30
33877;BMP180;20166;51.738;7.158;2023-08-07T08:36:29;100771.00;;;15.10
33877;BMP180;20166;51.738;7.158;2023-08-07T08:39:18;100787.00;;;15.10
33877;BMP180;20166;51.738;7.158;2023-08-07T08:42:05;100797.00;;;14.80
33877;BMP180;20166;51.738;7.158;2023-08-07T08:44:54;100793.00;;;15.20
33877;BMP180;20166;51.738;7.158;2023-08-07T08:47:42;100790.00;;;15.30
33877;BMP180;20166;51.738;7.158;2023-08-07T08:50:30;100780.00;;;15.60
33877;BMP180;20166;51.738;7.158;2023-08-07T08:53:20;100772.00;;;15.80
33877;BMP180;20166;51.738;7.158;2023-08-07T08:56:07;100767.00;;;16.20
33877;BMP180;20166;51.738;7.158;2023-08-07T08:58:54;100789.00;;;16.40
33877;BMP180;20166;51.738;7.158;2023-08-07T09:01:41;100786.00;;;16.30
33877;BMP180;20166;51.738;7.158;2023-08-07T09:04:28;100794.00;;;16.30
33877;BMP180;20166;51.738;7.158;2023-08-07T09:07:15;100796.00;;;16.00
33877;BMP180;20166;51.738;7.158;2023-08-07T09:10:04;100801.00;;;16.10
33877;BMP180;20166;51.738;7.158;2023-08-07T09:12:57;100778.00;;;16.60
33877;BMP180;20166;51.738;7.158;2023-08-07T09:15:46;100781.00;;;17.10
33877;BMP180;20166;51.738;7.158;2023-08-07T09:18:35;100797.00;;;17.20
33877;BMP180;20166;51.738;7.158;2023-08-07T09:21:22;100809.00;;;16.70
33877;BMP180;20166;51.738;7.158;2023-08-07T09:24:08;100803.00;;;16.40
33877;BMP180;20166;51.738;7.158;2023-08-07T09:26:56;100807.00;;;16.70
33877;BMP180;20166;51.738;7.158;2023-08-07T09:29:44;100805.00;;;16.80
33877;BMP180;20166;51.738;7.158;2023-08-07T09:32:32;100795.00;;;16.90
33877;BMP180;20166;51.738;7.158;2023-08-07T09:35:20;100810.00;;;16.60
33877;BMP180;20166;51.738;7.158;2023-08-07T09:38:07;100799.00;;;16.70
33877;BMP180;20166;51.738;7.158;2023-08-07T09:40:53;100800.00;;;17.30
33877;BMP180;20166;51.738;7.158;2023-08-07T09:43:42;100818.00;;;17.20
33877;BMP180;20166;51.738;7.158;2023-08-07T09:46:28;100811.00;;;16.90
33877;BMP180;20166;51.738;7.158;2023-08-07T09:49:19;100808.00;;;17.30
33877;BMP180;20166;51.738;7.158;2023-08-07T09:52:09;100812.00;;;17.50
33877;BMP180;20166;51.738;7.158;2023-08-07T09:54:56;100810.00;;;17.60
33877;BMP180;20166;51.738;7.158;2023-08-07T09:57:44;100831.00;;;18.40
33877;BMP180;20166;51.738;7.158;2023-08-07T10:00:34;100813.00;;;18.10
33877;BMP180;20166;51.738;7.158;2023-08-07T10:03:22;100849.00;;;17.80
33877;BMP180;20166;51.738;7.158;2023-08-07T10:06:10;100833.00;;;17.20
33877;BMP180;20166;51.738;7.158;2023-08-07T10:08:57;100831.00;;;17.20
33877;BMP180;20166;51.738;7.158;2023-08-07T10:11:45;100835.00;;;17.30
33877;BMP180;20166;51.738;7.158;2023-08-07T10:14:32;100857.00;;;17.30
33877;BMP180;20166;51.738;7.158;2023-08-07T10:17:20;100830.00;;;17.20
33877;BMP180;20166;51.738;7.158;2023-08-07T10:20:08;100851.00;;;17.30
33877;BMP180;20166;51.738;7.158;2023-08-07T10:22:57;100863.00;;;17.10
33877;BMP180;20166;51.738;7.158;2023-08-07T10:25:47;100864.00;;;17.20
33877;BMP180;20166;51.738;7.158;2023-08-07T10:28:37;100873.00;;;17.30
33877;BMP180;20166;51.738;7.158;2023-08-07T10:31:24;100849.00;;;18.00
33877;BMP180;20166;51.738;7.158;2023-08-07T10:34:13;100860.00;;;18.20
33877;BMP180;20166;51.738;7.158;2023-08-07T10:36:59;100860.00;;;18.30
33877;BMP180;20166;51.738;7.158;2023-08-07T10:40:01;100833.00;;;18.60
33877;BMP180;20166;51.738;7.158;2023-08-07T10:42:56;100846.00;;;18.90
33877;BMP180;20166;51.738;7.158;2023-08-07T10:45:43;100867.00;;;18.00
33877;BMP180;20166;51.738;7.158;2023-08-07T10:48:29;100849.00;;;18.00
33877;BMP180;20166;51.738;7.158;2023-08-07T10:51:18;100861.00;;;18.70
33877;BMP180;20166;51.738;7.158;2023-08-07T10:54:04;100848.00;;;18.70
33877;BMP180;20166;51.738;7.158;2023-08-07T10:56:52;100854.00;;;19.30
33877;BMP180;20166;51.738;7.158;2023-08-07T10:59:44;100839.00;;;19.90
33877;BMP180;20166;51.738;7.158;2023-08-07T11:02:31;100857.00;;;20.40
33877;BMP180;20166;51.738;7.158;2023-08-07T11:05:18;100874.00;;;19.30
33877;BMP180;20166;51.738;7.158;2023-08-07T11:08:07;100882.00;;;18.40
33877;BMP180;20166;51.738;7.158;2023-08-07T11:10:54;100892.00;;;17.70
33877;BMP180;20166;51.738;7.158;2023-08-07T11:13:41;100906.00;;;17.60
33877;BMP180;20166;51.738;7.158;2023-08-07T11:16:27;100906.00;;;17.40
33877;BMP180;20166;51.738;7.158;2023-08-07T11:19:15;100909.00;;;17.40
33877;BMP180;20166;51.738;7.158;2023-08-07T11:22:02;100913.00;;;17.20
33877;BMP180;20166;51.738;7.158;2023-08-07T11:24:50;100911.00;;;17.20
33877;BMP180;20166;51.738;7.158;2023-08-07T11:27:37;100911.00;;;17.20
33877;BMP180;20166;51.738;7.158;2023-08-07T11:30:23;100916.00;;;17.10
33877;BMP180;20166;51.738;7.158;2023-08-07T11:33:10;100923.00;;;17.00
33877;BMP180;20166;51.738;7.158;2023-08-07T11:35:57;100889.00;;;17.50
33877;BMP180;20166;51.738;7.158;2023-08-07T11:38:44;100889.00;;;18.20
33877;BMP180;20166;51.738;7.158;2023-08-07T11:41:32;100894.00;;;18.90
33877;BMP180;20166;51.738;7.158;2023-08-07T11:44:18;100914.00;;;19.30
33877;BMP180;20166;51.738;7.158;2023-08-07T11:47:06;100895.00;;;19.40
33877;BMP180;20166;51.738;7.158;2023-08-07T11:49:52;100902.00;;;19.00
33877;BMP180;20166;51.738;7.158;2023-08-07T11:52:39;100898.00;;;18.50
33877;BMP180;20166;51.738;7.158;2023-08-07T11:55:28;100897.00;;;19.70
33877;BMP180;20166;51.738;7.158;2023-08-07T11:58:19;100877.00;;;19.90
33877;BMP180;20166;51.738;7.158;2023-08-07T12:01:06;100891.00;;;20.20
33877;BMP180;20166;51.738;7.158;2023-08-07T12:03:54;100909.00;;;20.00
33877;BMP180;20166;51.738;7.158;2023-08-07T12:06:52;100879.00;;;20.20
33877;BMP180;20166;51.738;7.158;2023-08-07T12:09:41;100900.00;;;21.00
33877;BMP180;20166;51.738;7.158;2023-08-07T12:12:28;100895.00;;;20.90
33877;BMP180;20166;51.738;7.158;2023-08-07T12:15:16;100910.00;;;20.80
33877;BMP180;20166;51.738;7.158;2023-08-07T12:18:02;100918.00;;;20.70
33877;BMP180;20166;51.738;7.158;2023-08-07T12:20:49;100912.00;;;19.60
33877;BMP180;20166;51.738;7.158;2023-08-07T12:23:36;100942.00;;;19.30
33877;BMP180;20166;51.738;7.158;2023-08-07T12:26:23;100926.00;;;19.90
33877;BMP180;20166;51.738;7.158;2023-08-07T12:29:10;100918.00;;;20.50
33877;BMP180;20166;51.738;7.158;2023-08-07T12:31:58;100924.00;;;20.70
33877;BMP180;20166;51.738;7.158;2023-08-07T12:34:46;100934.00;;;21.40
33877;BMP180;20166;51.738;7.158;2023-08-07T12:37:37;100922.00;;;20.70
33877;BMP180;20166;51.738;7.158;2023-08-07T12:40:24;100953.00;;;21.20
33877;BMP180;20166;51.738;7.158;2023-08-07T12:43:14;100935.00;;;20.90
33877;BMP180;20166;51.738;7.158;2023-08-07T12:46:00;100949.00;;;20.00
33877;BMP180;20166;51.738;7.158;2023-08-07T12:48:51;100964.00;;;19.50
33877;BMP180;20166;51.738;7.158;2023-08-07T12:51:37;100967.00;;;19.20
33877;BMP180;20166;51.738;7.158;2023-08-07T12:54:24;100961.00;;;19.90
33877;BMP180;20166;51.738;7.158;2023-08-07T12:57:10;100928.00;;;19.60
33877;BMP180;20166;51.738;7.158;2023-08-07T12:59:57;100957.00;;;20.90
33877;BMP180;20166;51.738;7.158;2023-08-07T13:02:44;100944.00;;;21.40
33877;BMP180;20166;51.738;7.158;2023-08-07T13:05:33;100948.00;;;21.90
33877;BMP180;20166;51.738;7.158;2023-08-07T13:08:22;100949.00;;;21.50
33877;BMP180;20166;51.738;7.158;2023-08-07T13:11:08;100951.00;;;21.40
33877;BMP180;20166;51.738;7.158;2023-08-07T13:13:55;100935.00;;;21.90
33877;BMP180;20166;51.738;7.158;2023-08-07T13:16:41;100945.00;;;22.00
33877;BMP180;20166;51.738;7.158;2023-08-07T13:19:28;100937.00;;;22.30
33877;BMP180;20166;51.738;7.158;2023-08-07T13:22:16;100947.00;;;22.70
33877;BMP180;20166;51.738;7.158;2023-08-07T13:25:03;100946.00;;;22.70
33877;BMP180;20166;51.738;7.158;2023-08-07T13:27:50;100974.00;;;22.70
33877;BMP180;20166;51.738;7.158;2023-08-07T13:30:36;100952.00;;;21.80
33877;BMP180;20166;51.738;7.158;2023-08-07T13:33:22;100960.00;;;21.80
33877;BMP180;20166;51.738;7.158;2023-08-07T13:36:09;100969.00;;;20.70
33877;BMP180;20166;51.738;7.158;2023-08-07T13:38:57;100976.00;;;20.40
33877;BMP180;20166;51.738;7.158;2023-08-07T13:41:45;100984.00;;;20.00
33877;BMP180;20166;51.738;7.158;2023-08-07T13:44:32;100998.00;;;19.20
33877;BMP180;20166;51.738;7.158;2023-08-07T13:47:19;101010.00;;;19.20
33877;BMP180;20166;51.738;7.158;2023-08-07T13:50:07;101007.00;;;19.10
33877;BMP180;20166;51.738;7.158;2023-08-07T13:52:57;100997.00;;;19.10
33877;BMP180;20166;51.738;7.158;2023-08-07T13:55:59;101019.00;;;19.90
33877;BMP180;20166;51.738;7.158;2023-08-07T13:58:46;101004.00;;;19.50
33877;BMP180;20166;51.738;7.158;2023-08-07T14:01:32;101034.00;;;20.10
33877;BMP180;20166;51.738;7.158;2023-08-07T14:04:19;100999.00;;;20.90
33877;BMP180;20166;51.738;7.158;2023-08-07T14:07:06;100980.00;;;20.90
33877;BMP180;20166;51.738;7.158;2023-08-07T14:09:53;100982.00;;;21.10
33877;BMP180;20166;51.738;7.158;2023-08-07T14:12:41;100979.00;;;21.00
33877;BMP180;20166;51.738;7.158;2023-08-07T14:15:27;101007.00;;;21.20
33877;BMP180;20166;51.738;7.158;2023-08-07T14:18:14;101017.00;;;20.40
33877;BMP180;20166;51.738;7.158;2023-08-07T14:21:01;101018.00;;;20.90
33877;BMP180;20166;51.738;7.158;2023-08-07T14:23:48;101024.00;;;20.20
33877;BMP180;20166;51.738;7.158;2023-08-07T14:26:34;101020.00;;;19.60
33877;BMP180;20166;51.738;7.158;2023-08-07T14:29:22;101024.00;;;19.60
33877;BMP180;20166;51.738;7.158;2023-08-07T14:32:08;100994.00;;;21.50
33877;BMP180;20166;51.738;7.158;2023-08-07T14:34:55;100991.00;;;21.70
33877;BMP180;20166;51.738;7.158;2023-08-07T14:37:41;100991.00;;;21.80
33877;BMP180;20166;51.738;7.158;2023-08-07T14:40:29;100486.00;;;23.40
33877;BMP180;20166;51.738;7.158;2023-08-07T14:43:15;100974.00;;;24.90
33877;BMP180;20166;51.738;7.158;2023-08-07T14:46:03;101016.00;;;24.50
33877;BMP180;20166;51.738;7.158;2023-08-07T14:48:50;101017.00;;;25.00
33877;BMP180;20166;51.738;7.158;2023-08-07T14:51:36;101015.00;;;23.60
33877;BMP180;20166;51.738;7.158;2023-08-07T14:54:22;101034.00;;;23.50
33877;BMP180;20166;51.738;7.158;2023-08-07T14:57:10;101014.00;;;22.00
33877;BMP180;20166;51.738;7.158;2023-08-07T14:59:57;100994.00;;;23.20
33877;BMP180;20166;51.738;7.158;2023-08-07T15:02:45;101043.00;;;21.70
33877;BMP180;20166;51.738;7.158;2023-08-07T15:05:31;101050.00;;;20.60
33877;BMP180;20166;51.738;7.158;2023-08-07T15:08:18;101036.00;;;20.40
33877;BMP180;20166;51.738;7.158;2023-08-07T15:11:04;101037.00;;;20.20
33877;BMP180;20166;51.738;7.158;2023-08-07T15:13:51;101047.00;;;20.30
33877;BMP180;20166;51.738;7.158;2023-08-07T15:16:37;101048.00;;;20.00
33877;BMP180;20166;51.738;7.158;2023-08-07T15:19:25;101053.00;;;19.80
33877;BMP180;20166;51.738;7.158;2023-08-07T15:22:11;100940.00;;;22.60
33877;BMP180;20166;51.738;7.158;2023-08-07T15:24:58;101061.00;;;22.00
33877;BMP180;20166;51.738;7.158;2023-08-07T15:27:44;100856.00;;;22.90
33877;BMP180;20166;51.738;7.158;2023-08-07T15:30:32;100864.00;;;27.20
33877;BMP180;20166;51.738;7.158;2023-08-07T15:33:19;101014.00;;;23.30
33877;BMP180;20166;51.738;7.158;2023-08-07T15:36:10;101044.00;;;21.20
33877;BMP180;20166;51.738;7.158;2023-08-07T15:38:57;101052.00;;;21.20
33877;BMP180;20166;51.738;7.158;2023-08-07T15:41:43;101051.00;;;21.60
33877;BMP180;20166;51.738;7.158;2023-08-07T15:44:29;101043.00;;;21.00
33877;BMP180;20166;51.738;7.158;2023-08-07T15:47:16;100947.00;;;22.60
33877;BMP180;20166;51.738;7.158;2023-08-07T15:50:03;101058.00;;;20.90